Terminal Aerodrome Forecast
Issued by NWS Louisville, KY

Home | Current Version | Previous Version | Text Only | Print | Product List | Glossary On
Versions: 1 2 3 4 5 6 7 8 9 10 11 12 13 14 15 16 17 18 19
000
FTUS43 KLMK 032320
TAFLEX
TAF
KLEX 032320Z 0400/0424 09004KT P6SM OVC150
     FM040800 09006KT P6SM VCSH OVC040
     FM041400 11008KT 4SM -SHRA BKN025
     FM041900 13007KT 3SM -RA BR BKN010=

USA.gov is the U.S. government's official web portal to all federal, state and local government web resources and services.